createdAt,value
2017-12-28T00:00:01.927Z,3.70
2017-12-28T00:02:29.497Z,3.70
2017-12-28T00:04:57.804Z,3.60
2017-12-28T00:07:26.142Z,3.60
2017-12-28T00:09:53.670Z,3.60
2017-12-28T00:12:21.200Z,3.60
2017-12-28T00:14:49.522Z,3.50
2017-12-28T00:17:17.815Z,3.50
2017-12-28T00:19:45.370Z,3.50
2017-12-28T00:22:12.899Z,3.50
2017-12-28T00:24:41.220Z,3.40
2017-12-28T00:27:09.517Z,3.50
2017-12-28T00:29:37.843Z,3.50
2017-12-28T00:32:06.139Z,3.40
2017-12-28T00:34:34.462Z,3.50
2017-12-28T00:37:01.998Z,3.40
2017-12-28T00:39:29.553Z,3.50
2017-12-28T00:41:57.857Z,3.50
2017-12-28T00:44:26.181Z,3.60
2017-12-28T00:46:54.675Z,3.60
2017-12-28T00:49:22.247Z,3.60
2017-12-28T00:51:49.775Z,3.60
2017-12-28T00:54:18.072Z,3.60
2017-12-28T00:56:46.386Z,3.60
2017-12-28T00:59:13.918Z,3.60
2017-12-28T01:01:42.236Z,3.50
2017-12-28T01:04:10.539Z,3.60
2017-12-28T01:06:38.867Z,3.50
2017-12-28T01:09:07.160Z,3.50
2017-12-28T01:11:34.721Z,3.50
2017-12-28T01:14:02.255Z,3.60
2017-12-28T01:16:30.581Z,3.60
2017-12-28T01:18:58.874Z,3.60
2017-12-28T01:21:26.431Z,3.60
2017-12-28T01:23:53.956Z,3.60
2017-12-28T01:26:22.295Z,3.60
2017-12-28T01:28:49.826Z,3.60
2017-12-28T01:31:18.132Z,3.60
2017-12-28T01:33:45.687Z,3.60
2017-12-28T01:36:13.987Z,3.60
2017-12-28T01:38:41.543Z,3.60
2017-12-28T01:41:09.843Z,3.60
2017-12-28T01:43:38.167Z,3.60
2017-12-28T01:46:06.462Z,3.60
2017-12-28T01:48:34.020Z,3.60
2017-12-28T01:51:02.330Z,3.60
2017-12-28T01:53:30.650Z,3.70
2017-12-28T01:55:58.964Z,3.60
2017-12-28T01:58:27.292Z,3.60
2017-12-28T02:00:54.839Z,3.60
2017-12-28T02:03:23.150Z,3.60
2017-12-28T02:05:51.472Z,3.50
2017-12-28T02:08:19.770Z,3.50
2017-12-28T02:10:47.325Z,3.50
2017-12-28T02:13:14.861Z,3.50
2017-12-28T02:15:43.181Z,3.50
2017-12-28T02:18:10.707Z,3.50
2017-12-28T02:20:39.024Z,3.50
2017-12-28T02:23:07.322Z,3.50
2017-12-28T02:25:35.634Z,3.50
2017-12-28T02:28:03.166Z,3.50
2017-12-28T02:30:31.502Z,3.50
2017-12-28T02:32:59.049Z,3.40
2017-12-28T02:35:27.346Z,3.40
2017-12-28T02:37:54.895Z,3.40
2017-12-28T02:40:22.424Z,3.40
2017-12-28T02:42:50.746Z,3.30
2017-12-28T02:45:19.045Z,3.30
2017-12-28T02:47:47.364Z,3.30
2017-12-28T02:50:14.914Z,3.30
2017-12-28T02:52:43.246Z,3.40
2017-12-28T02:55:11.550Z,3.40
2017-12-28T02:57:39.107Z,3.40
2017-12-28T03:00:07.410Z,3.40
2017-12-28T03:02:35.741Z,3.40
2017-12-28T03:05:04.048Z,3.40
2017-12-28T03:07:32.357Z,3.40
2017-12-28T03:10:00.684Z,3.50
2017-12-28T03:12:28.985Z,3.50
2017-12-28T03:14:57.300Z,3.50
2017-12-28T03:17:25.593Z,3.50
2017-12-28T03:19:53.141Z,3.40
2017-12-28T03:22:20.675Z,3.50
2017-12-28T03:24:48.994Z,3.40
2017-12-28T03:27:17.325Z,3.40
2017-12-28T03:29:45.646Z,3.40
2017-12-28T03:32:13.942Z,3.40
2017-12-28T03:34:42.262Z,3.40
2017-12-28T03:37:10.558Z,3.40
2017-12-28T03:39:38.110Z,3.40
2017-12-28T03:42:06.408Z,3.40
2017-12-28T03:44:34.732Z,3.40
2017-12-28T03:47:03.030Z,3.40
2017-12-28T03:49:31.358Z,3.40
2017-12-28T03:51:58.887Z,3.40
2017-12-28T03:54:27.232Z,3.30
2017-12-28T03:56:55.526Z,3.30
2017-12-28T03:59:23.060Z,3.30
2017-12-28T04:01:50.616Z,3.30
2017-12-28T04:04:18.908Z,3.30
2017-12-28T04:06:47.228Z,3.30
2017-12-28T04:09:15.533Z,3.30
2017-12-28T04:11:43.851Z,3.30
2017-12-28T04:14:11.378Z,3.30
2017-12-28T04:16:39.697Z,3.30
2017-12-28T04:19:08.005Z,3.30
2017-12-28T04:21:35.554Z,3.30
2017-12-28T04:24:03.851Z,3.20
2017-12-28T04:26:32.165Z,3.20
2017-12-28T04:29:00.461Z,3.20
2017-12-28T04:31:28.016Z,3.20
2017-12-28T04:33:55.544Z,3.20
2017-12-28T04:36:23.880Z,3.30
2017-12-28T04:38:52.194Z,3.20
2017-12-28T04:41:19.727Z,3.20
2017-12-28T04:43:47.293Z,3.20
2017-12-28T04:46:15.590Z,3.20
2017-12-28T04:48:43.901Z,3.20
2017-12-28T04:51:11.442Z,3.10
2017-12-28T04:53:39.007Z,3.00
2017-12-28T04:56:07.302Z,2.90
2017-12-28T04:58:35.625Z,2.90
2017-12-28T05:01:03.922Z,2.90
2017-12-28T05:03:32.240Z,2.90
2017-12-28T05:06:00.540Z,2.90
2017-12-28T05:08:28.100Z,2.90
2017-12-28T05:10:56.396Z,2.90
2017-12-28T05:13:23.947Z,2.90
2017-12-28T05:15:52.253Z,2.90
2017-12-28T05:18:19.813Z,2.90
2017-12-28T05:20:47.371Z,2.90
2017-12-28T05:23:15.720Z,2.90
2017-12-28T05:25:44.023Z,2.90
2017-12-28T05:28:11.557Z,2.90
2017-12-28T05:30:39.151Z,3.00
2017-12-28T05:33:06.684Z,3.00
2017-12-28T05:35:35.008Z,3.00
2017-12-28T05:38:03.297Z,3.00
2017-12-28T05:40:30.855Z,3.00
2017-12-28T05:42:59.162Z,3.00
2017-12-28T05:45:27.482Z,3.00
2017-12-28T05:47:55.020Z,3.00
2017-12-28T05:50:22.588Z,3.00
2017-12-28T05:52:50.904Z,3.00
2017-12-28T05:55:19.218Z,3.00
2017-12-28T05:57:46.749Z,3.00
2017-12-28T06:00:14.304Z,2.90
2017-12-28T06:02:41.865Z,2.90
2017-12-28T06:05:10.172Z,2.90
2017-12-28T06:07:38.494Z,2.90
2017-12-28T06:10:06.033Z,2.90
2017-12-28T06:12:34.937Z,2.80
2017-12-28T06:15:03.235Z,2.80
2017-12-28T06:17:30.798Z,2.80
2017-12-28T06:19:59.102Z,2.80
2017-12-28T06:22:26.650Z,2.80
2017-12-28T06:24:54.938Z,2.90
2017-12-28T06:27:23.258Z,2.90
2017-12-28T06:29:50.789Z,2.90
2017-12-28T06:32:19.103Z,2.90
2017-12-28T06:34:47.398Z,2.90
2017-12-28T06:37:15.736Z,2.90
2017-12-28T06:39:43.270Z,2.90
2017-12-28T06:42:10.801Z,2.90
2017-12-28T06:44:39.116Z,2.80
2017-12-28T06:47:06.649Z,2.80
2017-12-28T06:49:34.206Z,2.80
2017-12-28T06:52:02.502Z,2.70
2017-12-28T06:54:30.823Z,2.70
2017-12-28T06:56:59.114Z,2.70
2017-12-28T06:59:26.678Z,2.70
2017-12-28T07:01:55.012Z,2.70
2017-12-28T07:04:23.330Z,2.60
2017-12-28T07:06:51.627Z,2.60
2017-12-28T07:09:19.181Z,2.60
2017-12-28T07:11:47.474Z,2.60
2017-12-28T07:14:15.043Z,2.60
2017-12-28T07:16:43.352Z,2.60
2017-12-28T07:19:10.919Z,2.60
2017-12-28T07:21:38.462Z,2.60
2017-12-28T07:24:06.020Z,2.60
2017-12-28T07:26:34.314Z,2.60
2017-12-28T07:29:01.851Z,2.50
2017-12-28T07:31:29.400Z,2.60
2017-12-28T07:33:56.934Z,2.60
2017-12-28T07:36:25.259Z,2.60
2017-12-28T07:38:53.578Z,2.60
2017-12-28T07:41:21.176Z,2.60
2017-12-28T07:43:49.455Z,2.60
2017-12-28T07:46:17.775Z,2.60
2017-12-28T07:48:46.067Z,2.60
2017-12-28T07:51:13.621Z,2.50
2017-12-28T07:53:41.929Z,2.60
2017-12-28T07:56:10.248Z,2.60
2017-12-28T07:58:38.544Z,2.60
2017-12-28T08:01:06.095Z,2.60
2017-12-28T08:03:34.392Z,2.60
2017-12-28T08:06:02.712Z,2.60
2017-12-28T08:08:31.015Z,2.60
2017-12-28T08:10:59.334Z,2.60
2017-12-28T08:13:26.862Z,2.60
2017-12-28T08:15:55.178Z,2.60
2017-12-28T08:18:23.478Z,2.70
2017-12-28T08:20:51.794Z,2.70
2017-12-28T08:23:20.098Z,2.70
2017-12-28T08:25:48.423Z,2.80
2017-12-28T08:28:16.720Z,2.80
2017-12-28T08:30:44.273Z,2.80
2017-12-28T08:33:12.566Z,2.80
2017-12-28T08:35:40.887Z,2.80
2017-12-28T08:38:09.191Z,2.90
2017-12-28T08:40:36.743Z,2.90
2017-12-28T08:43:05.042Z,2.90
2017-12-28T08:45:33.354Z,2.90
2017-12-28T08:48:01.655Z,2.90
2017-12-28T08:50:30.028Z,2.90
2017-12-28T08:52:58.369Z,3.00
2017-12-28T08:55:26.677Z,3.00
2017-12-28T08:57:55.012Z,3.10
2017-12-28T09:00:23.310Z,3.10
2017-12-28T09:02:50.871Z,3.10
2017-12-28T09:05:19.174Z,3.10
2017-12-28T09:07:47.500Z,3.10
2017-12-28T09:10:15.798Z,3.10
2017-12-28T09:12:44.130Z,3.10
2017-12-28T09:15:12.437Z,3.10
2017-12-28T09:17:40.755Z,3.10
2017-12-28T09:20:08.295Z,3.10
2017-12-28T09:22:36.646Z,3.10
2017-12-28T09:25:04.947Z,3.20
2017-12-28T09:27:32.499Z,3.10
2017-12-28T09:30:00.039Z,3.20
2017-12-28T09:32:28.383Z,3.20
2017-12-28T09:34:56.689Z,3.10
2017-12-28T09:37:25.026Z,3.10
2017-12-28T09:39:54.253Z,3.10
2017-12-28T09:42:21.798Z,3.00
2017-12-28T09:44:50.090Z,3.10
2017-12-28T09:47:18.405Z,3.10
2017-12-28T09:49:46.698Z,3.10
2017-12-28T09:52:15.014Z,3.00
2017-12-28T09:54:43.314Z,3.10
2017-12-28T09:57:11.637Z,3.20
2017-12-28T09:59:39.931Z,3.30
2017-12-28T10:02:08.250Z,3.30
2017-12-28T10:04:36.552Z,3.30
2017-12-28T10:07:04.874Z,3.40
2017-12-28T10:09:33.176Z,3.50
2017-12-28T10:12:01.492Z,3.40
2017-12-28T10:14:29.022Z,3.40
2017-12-28T10:16:57.338Z,3.30
2017-12-28T10:19:25.635Z,3.20
2017-12-28T10:21:53.962Z,3.10
2017-12-28T10:24:22.263Z,3.10
2017-12-28T10:26:50.589Z,2.90
2017-12-28T10:29:18.123Z,2.90
2017-12-28T10:31:45.655Z,2.90
2017-12-28T10:34:13.975Z,2.90
2017-12-28T10:36:42.281Z,2.90
2017-12-28T10:39:09.835Z,2.90
2017-12-28T10:41:37.367Z,3.00
2017-12-28T10:44:05.691Z,3.10
2017-12-28T10:46:33.985Z,3.20
2017-12-28T10:49:02.307Z,3.30
2017-12-28T10:51:30.604Z,3.30
2017-12-28T10:53:58.165Z,3.30
2017-12-28T10:56:26.476Z,3.50
2017-12-28T10:58:54.033Z,3.50
2017-12-28T11:01:21.568Z,3.60
2017-12-28T11:03:49.887Z,3.90
2017-12-28T11:06:18.186Z,3.90
2017-12-28T11:08:46.571Z,3.80
2017-12-28T11:11:14.896Z,3.80
2017-12-28T11:13:43.220Z,3.60
2017-12-28T11:16:11.538Z,3.60
2017-12-28T11:18:39.867Z,3.60
2017-12-28T11:21:08.171Z,3.60
2017-12-28T11:23:36.497Z,3.70
2017-12-28T11:26:04.795Z,3.70
2017-12-28T11:28:33.114Z,3.90
2017-12-28T11:31:01.410Z,3.90
2017-12-28T11:33:29.726Z,4.10
2017-12-28T11:35:58.026Z,4.20
2017-12-28T11:38:26.337Z,4.30
2017-12-28T11:40:54.640Z,4.40
2017-12-28T11:43:22.956Z,4.70
2017-12-28T11:45:51.242Z,4.80
2017-12-28T11:48:20.063Z,4.70
2017-12-28T11:50:48.365Z,4.60
2017-12-28T11:53:22.366Z,4.50
2017-12-28T11:56:05.566Z,4.50
2017-12-28T11:58:48.770Z,4.50
2017-12-28T12:01:18.977Z,4.30
2017-12-28T12:03:49.402Z,4.30
2017-12-28T12:06:23.369Z,4.30
2017-12-28T12:08:57.482Z,4.50
2017-12-28T12:11:25.778Z,4.50
2017-12-28T12:13:54.103Z,4.50
2017-12-28T12:16:22.406Z,4.60
2017-12-28T12:18:50.724Z,4.60
2017-12-28T12:21:18.250Z,4.50
2017-12-28T12:23:46.574Z,4.70
2017-12-28T12:26:14.874Z,5.00
2017-12-28T12:28:43.195Z,5.10
2017-12-28T12:31:11.493Z,5.20
2017-12-28T12:33:39.813Z,5.20
2017-12-28T12:36:08.118Z,5.10
2017-12-28T12:38:36.443Z,4.80
2017-12-28T12:41:04.730Z,4.60
2017-12-28T12:43:33.044Z,4.30
2017-12-28T12:46:01.370Z,4.10
2017-12-28T12:48:29.665Z,3.90
2017-12-28T12:50:57.220Z,3.90
2017-12-28T12:53:25.542Z,3.70
2017-12-28T12:55:53.868Z,3.80
2017-12-28T12:58:22.168Z,3.80
2017-12-28T13:00:49.723Z,3.80
2017-12-28T13:03:18.035Z,3.90
2017-12-28T13:05:46.364Z,3.90
2017-12-28T13:08:13.890Z,3.90
2017-12-28T13:10:41.446Z,3.90
2017-12-28T13:13:09.747Z,3.60
2017-12-28T13:15:38.071Z,3.60
2017-12-28T13:18:06.371Z,3.60
2017-12-28T13:20:34.692Z,3.70
2017-12-28T13:23:02.996Z,3.70
2017-12-28T13:25:31.318Z,3.80
2017-12-28T13:27:59.615Z,3.90
2017-12-28T13:30:27.182Z,3.90
2017-12-28T13:32:55.493Z,4.30
2017-12-28T13:35:23.811Z,4.50
2017-12-28T13:37:52.116Z,4.50
2017-12-28T13:40:20.438Z,4.30
2017-12-28T13:42:48.740Z,4.20
2017-12-28T13:45:17.063Z,4.10
2017-12-28T13:47:45.362Z,4.10
2017-12-28T13:50:13.688Z,4.10
2017-12-28T13:52:41.983Z,4.10
2017-12-28T13:55:10.291Z,4.00
2017-12-28T13:57:37.836Z,3.90
2017-12-28T14:00:06.172Z,3.70
2017-12-28T14:02:34.461Z,3.60
2017-12-28T14:05:02.780Z,3.50
2017-12-28T14:07:31.079Z,3.40
2017-12-28T14:09:59.399Z,3.20
2017-12-28T14:12:26.952Z,3.20
2017-12-28T14:14:55.285Z,2.90
2017-12-28T14:17:23.579Z,2.70
2017-12-28T14:19:51.882Z,2.50
2017-12-28T14:22:20.214Z,2.30
2017-12-28T14:24:48.507Z,2.20
2017-12-28T14:27:16.835Z,2.10
2017-12-28T14:29:45.135Z,2.00
2017-12-28T14:32:13.463Z,1.90
2017-12-28T14:34:41.766Z,1.80
2017-12-28T14:37:10.083Z,1.80
2017-12-28T14:39:37.617Z,1.70
2017-12-28T14:42:05.947Z,1.70
2017-12-28T14:44:34.245Z,1.60
2017-12-28T14:47:02.570Z,1.60
2017-12-28T14:49:30.872Z,1.60
2017-12-28T14:51:58.422Z,1.50
2017-12-28T14:54:26.713Z,1.50
2017-12-28T14:56:55.033Z,1.50
2017-12-28T14:59:23.334Z,1.40
2017-12-28T15:01:51.656Z,1.40
2017-12-28T15:04:19.962Z,1.40
2017-12-28T15:06:48.292Z,1.30
2017-12-28T15:09:16.596Z,1.30
2017-12-28T15:11:44.910Z,1.20
2017-12-28T15:14:12.437Z,1.20
2017-12-28T15:16:40.762Z,1.20
2017-12-28T15:19:08.307Z,1.20
2017-12-28T15:21:36.636Z,1.10
2017-12-28T15:24:04.935Z,1.10
2017-12-28T15:26:33.254Z,1.10
2017-12-28T15:29:01.547Z,1.10
2017-12-28T15:31:29.875Z,1.10
2017-12-28T15:33:57.423Z,1.10
2017-12-28T15:36:25.752Z,1.10
2017-12-28T15:38:54.064Z,1.20
2017-12-28T15:41:22.410Z,1.20
2017-12-28T15:43:50.713Z,1.20
2017-12-28T15:46:19.043Z,1.30
2017-12-28T15:48:47.350Z,1.30
2017-12-28T15:51:15.698Z,1.30
2017-12-28T15:53:43.239Z,1.30
2017-12-28T15:56:11.541Z,1.30
2017-12-28T15:58:39.919Z,1.20
2017-12-28T16:01:08.231Z,1.10
2017-12-28T16:03:35.818Z,1.10
2017-12-28T16:06:04.137Z,1.00
2017-12-28T16:08:31.724Z,0.90
2017-12-28T16:11:00.049Z,0.80
2017-12-28T16:13:28.517Z,0.80
2017-12-28T16:15:56.819Z,0.80
2017-12-28T16:18:25.145Z,0.70
2017-12-28T16:20:53.478Z,0.70
2017-12-28T16:23:21.086Z,0.70
2017-12-28T16:25:49.457Z,0.60
2017-12-28T16:28:17.011Z,0.60
2017-12-28T16:30:45.308Z,0.50
2017-12-28T16:33:13.635Z,0.50
2017-12-28T16:35:41.956Z,0.50
2017-12-28T16:38:10.281Z,0.50
2017-12-28T16:40:38.591Z,0.50
2017-12-28T16:43:06.916Z,0.50
2017-12-28T16:45:35.223Z,0.50
2017-12-28T16:48:03.551Z,0.50
2017-12-28T16:50:31.863Z,0.50
2017-12-28T16:53:00.183Z,0.60
2017-12-28T16:55:28.483Z,0.60
2017-12-28T16:57:56.044Z,0.60
2017-12-28T17:00:24.389Z,0.70
2017-12-28T17:02:52.722Z,0.70
2017-12-28T17:05:21.019Z,0.80
2017-12-28T17:07:48.570Z,0.70
2017-12-28T17:10:16.106Z,0.80
2017-12-28T17:12:44.426Z,0.80
2017-12-28T17:15:12.730Z,0.80
2017-12-28T17:17:41.052Z,0.80
2017-12-28T17:20:09.366Z,0.80
2017-12-28T17:22:36.927Z,0.80
2017-12-28T17:25:05.223Z,0.80
2017-12-28T17:27:32.795Z,0.80
2017-12-28T17:30:01.104Z,0.90
2017-12-28T17:32:29.402Z,0.90
2017-12-28T17:34:57.730Z,0.90
2017-12-28T17:37:26.029Z,0.90
2017-12-28T17:39:54.371Z,0.90
2017-12-28T17:42:22.662Z,0.90
2017-12-28T17:44:50.986Z,0.90
2017-12-28T17:47:19.286Z,0.90
2017-12-28T17:49:48.466Z,0.90
2017-12-28T17:52:16.777Z,0.90
2017-12-28T17:54:45.109Z,0.90
2017-12-28T17:57:13.410Z,0.90
2017-12-28T17:59:41.741Z,0.80
2017-12-28T18:02:10.050Z,0.80
2017-12-28T18:04:38.385Z,0.80
2017-12-28T18:07:06.692Z,0.70
2017-12-28T18:09:34.256Z,0.70
2017-12-28T18:12:01.799Z,0.80
2017-12-28T18:14:30.129Z,0.90
2017-12-28T18:16:58.450Z,1.00
2017-12-28T18:19:26.778Z,1.10
2017-12-28T18:21:55.085Z,1.10
2017-12-28T18:24:22.657Z,1.10
2017-12-28T18:26:50.956Z,1.20
2017-12-28T18:29:19.301Z,1.30
2017-12-28T18:31:47.619Z,1.40
2017-12-28T18:34:15.951Z,1.40
2017-12-28T18:36:44.259Z,1.50
2017-12-28T18:39:12.617Z,1.50
2017-12-28T18:41:40.920Z,1.50
2017-12-28T18:44:08.476Z,1.50
2017-12-28T18:46:36.778Z,1.60
2017-12-28T18:49:04.351Z,1.60
2017-12-28T18:51:32.667Z,1.60
2017-12-28T18:54:00.229Z,1.60
2017-12-28T18:56:28.541Z,1.60
2017-12-28T18:58:56.878Z,1.70
2017-12-28T19:01:24.451Z,1.60
2017-12-28T19:03:51.986Z,1.70
2017-12-28T19:06:20.308Z,1.70
2017-12-28T19:08:48.607Z,1.70
2017-12-28T19:11:16.172Z,1.70
2017-12-28T19:13:44.476Z,1.70
2017-12-28T19:16:12.822Z,1.70
2017-12-28T19:18:41.134Z,1.80
2017-12-28T19:21:09.467Z,1.80
2017-12-28T19:23:37.779Z,1.80
2017-12-28T19:26:06.100Z,1.80
2017-12-28T19:28:34.408Z,1.80
2017-12-28T19:31:02.734Z,1.90
2017-12-28T19:33:31.046Z,1.90
2017-12-28T19:35:59.391Z,1.90
2017-12-28T19:38:28.683Z,1.90
2017-12-28T19:40:57.020Z,1.90
2017-12-28T19:43:24.563Z,1.90
2017-12-28T19:45:52.902Z,1.90
2017-12-28T19:48:20.447Z,1.90
2017-12-28T19:50:48.786Z,1.90
2017-12-28T19:53:17.095Z,1.90
2017-12-28T19:55:45.439Z,1.90
2017-12-28T19:58:12.986Z,1.90
2017-12-28T20:00:41.319Z,1.90
2017-12-28T20:03:09.628Z,1.90
2017-12-28T20:05:37.954Z,1.90
2017-12-28T20:08:06.261Z,1.90
2017-12-28T20:10:33.820Z,1.90
2017-12-28T20:13:02.138Z,1.90
2017-12-28T20:15:30.474Z,1.90
2017-12-28T20:17:58.783Z,1.90
2017-12-28T20:20:27.118Z,1.90
2017-12-28T20:22:55.426Z,1.90
2017-12-28T20:25:23.746Z,1.90
2017-12-28T20:27:52.061Z,1.90
2017-12-28T20:30:20.399Z,1.90
2017-12-28T20:32:48.709Z,1.90
2017-12-28T20:35:17.034Z,1.90
2017-12-28T20:37:45.340Z,2.00
2017-12-28T20:40:13.671Z,2.00
2017-12-28T20:42:41.987Z,2.00
2017-12-28T20:45:10.305Z,2.00
2017-12-28T20:47:38.635Z,1.90
2017-12-28T20:50:06.934Z,1.90
2017-12-28T20:52:35.252Z,1.90
2017-12-28T20:55:03.558Z,1.80
2017-12-28T20:57:31.884Z,1.80
2017-12-28T20:59:59.426Z,1.80
2017-12-28T21:02:27.746Z,1.80
2017-12-28T21:04:56.058Z,1.80
2017-12-28T21:07:23.628Z,1.80
2017-12-28T21:09:51.932Z,1.70
2017-12-28T21:12:19.491Z,1.70
2017-12-28T21:14:47.802Z,1.60
2017-12-28T21:17:16.131Z,1.50
2017-12-28T21:19:44.447Z,1.50
2017-12-28T21:22:12.775Z,1.50
2017-12-28T21:24:41.078Z,1.50
2017-12-28T21:27:09.402Z,1.60
2017-12-28T21:29:37.702Z,1.60
2017-12-28T21:32:05.259Z,1.60
2017-12-28T21:34:34.135Z,1.60
2017-12-28T21:37:02.463Z,1.60
2017-12-28T21:39:29.992Z,1.60
2017-12-28T21:41:58.315Z,1.50
2017-12-28T21:44:25.850Z,1.50
2017-12-28T21:46:54.171Z,1.50
2017-12-28T21:49:22.478Z,1.50
2017-12-28T21:51:50.811Z,1.50
2017-12-28T21:54:18.343Z,1.50
2017-12-28T21:56:46.662Z,1.50
2017-12-28T21:59:14.968Z,1.50
2017-12-28T22:01:43.293Z,1.60
2017-12-28T22:04:10.824Z,1.50
2017-12-28T22:06:39.146Z,1.60
2017-12-28T22:09:06.687Z,1.60
2017-12-28T22:11:35.001Z,1.60
2017-12-28T22:14:03.301Z,1.60
2017-12-28T22:16:31.600Z,1.70
2017-12-28T22:18:59.916Z,1.70
2017-12-28T22:21:27.455Z,1.60
2017-12-28T22:23:55.774Z,1.70
2017-12-28T22:26:24.070Z,1.70
2017-12-28T22:28:52.393Z,1.60
2017-12-28T22:31:20.695Z,1.60
2017-12-28T22:33:48.252Z,1.60
2017-12-28T22:36:16.552Z,1.60
2017-12-28T22:38:44.870Z,1.60
2017-12-28T22:41:13.171Z,1.60
2017-12-28T22:43:41.457Z,1.70
2017-12-28T22:46:09.777Z,1.70
2017-12-28T22:48:37.306Z,1.70
2017-12-28T22:51:05.624Z,1.70
2017-12-28T22:53:33.922Z,1.70
2017-12-28T22:56:02.255Z,1.80
2017-12-28T22:58:30.550Z,1.70
2017-12-28T23:00:58.871Z,1.70
2017-12-28T23:03:27.170Z,1.60
2017-12-28T23:05:55.493Z,1.60
2017-12-28T23:08:23.795Z,1.50
2017-12-28T23:10:52.104Z,1.50
2017-12-28T23:13:20.419Z,1.50
2017-12-28T23:15:48.714Z,1.50
2017-12-28T23:18:17.037Z,1.50
2017-12-28T23:20:45.059Z,1.50
2017-12-28T23:23:13.378Z,1.50
2017-12-28T23:25:41.678Z,1.50
2017-12-28T23:28:09.242Z,1.50
2017-12-28T23:30:37.538Z,1.40
2017-12-28T23:33:05.106Z,1.40
2017-12-28T23:35:33.413Z,1.40
2017-12-28T23:38:01.717Z,1.40
2017-12-28T23:40:30.041Z,1.40
2017-12-28T23:42:58.342Z,1.40
2017-12-28T23:45:26.658Z,1.30
2017-12-28T23:47:54.962Z,1.30
2017-12-28T23:50:22.522Z,1.30
2017-12-28T23:52:50.822Z,1.30
2017-12-28T23:55:19.142Z,1.30
2017-12-28T23:57:46.676Z,1.20
